Time;durP1;ratioP1;P1;durP2;ratioP2;P2;SDS_P1;SDS_P2;PMS_P1;PMS_P2;Temp;Humidity;BMP_temperature;BMP_pressure;BME280_temperature;BME280_humidity;BME280_pressure;Samples;Min_cycle;Max_cycle;Signal;HPM_P1;HPM_P2
2022/02/09 00:01:28;;;;;;;6.73;2.80;;;;;;;4.72;100.00;96880.81;5033571;28;20687;-79
2022/02/09 00:09:04;;;;;;;3.93;2.10;;;;;;;4.78;100.00;96889.97;5053416;28;20209;-78
2022/02/09 00:11:37;;;;;;;4.80;2.40;;;;;;;4.77;100.00;96890.84;5033811;28;20656;-79
2022/02/09 00:14:12;;;;;;;2.97;1.70;;;;;;;4.76;100.00;96877.16;5033832;28;20640;-79
2022/02/09 00:19:30;;;;;;;5.83;2.67;;;;;;;4.80;100.00;96888.13;5033604;28;20663;-80
2022/02/09 00:24:59;;;;;;;2.77;1.60;;;;;;;4.83;100.00;96882.81;5033552;28;20319;-79
2022/02/09 00:27:59;;;;;;;2.23;1.80;;;;;;;4.80;100.00;96888.97;5019626;28;20231;-79
2022/02/09 00:30:52;;;;;;;1.77;1.50;;;;;;;4.86;100.00;96887.84;5032998;28;20195;-78
2022/02/09 00:44:15;;;;;;;3.97;2.20;;;;;;;4.90;99.71;96893.63;5033239;28;20607;-78
2022/02/09 01:03:07;;;;;;;2.17;1.80;;;;;;;4.83;100.00;96883.66;5032804;28;20726;-78
2022/02/09 01:38:00;;;;;;;4.30;1.90;;;;;;;4.88;100.00;96856.84;5036858;28;20252;-77
2022/02/09 01:44:35;;;;;;;2.37;1.53;;;;;;;4.89;99.92;96851.63;5036346;28;20223;-78
2022/02/09 01:55:32;;;;;;;2.23;1.57;;;;;;;4.79;99.87;96841.00;5036183;28;20709;-78
2022/02/09 01:57:58;;;;;;;5.87;1.77;;;;;;;4.88;98.70;96834.53;5035832;28;20838;-78
2022/02/09 02:00:23;;;;;;;3.30;1.50;;;;;;;4.96;97.90;96837.53;5036533;28;20213;-77
2022/02/09 02:02:49;;;;;;;2.60;1.33;;;;;;;4.92;96.94;96830.03;5019349;28;20184;-80
2022/02/09 02:05:15;;;;;;;1.20;1.10;;;;;;;5.00;97.30;96833.03;5036006;28;20182;-78
2022/02/09 02:07:51;;;;;;;3.97;1.50;;;;;;;4.96;96.96;96837.53;5034439;28;20240;-78
2022/02/09 02:10:22;;;;;;;2.70;1.27;;;;;;;5.01;97.03;96832.13;5035293;28;20579;-79
2022/02/09 02:18:07;;;;;;;2.20;1.20;;;;;;;5.00;96.16;96833.84;5035390;28;20181;-80
2022/02/09 02:20:53;;;;;;;2.90;1.40;;;;;;;4.92;96.54;96838.59;5036470;28;20190;-79
2022/02/09 02:23:36;;;;;;;3.40;1.63;;;;;;;4.96;96.51;96829.81;5021540;28;20198;-80
2022/02/09 02:26:34;;;;;;;3.50;1.40;;;;;;;5.00;96.21;96827.88;5035964;28;20391;-80
2022/02/09 02:42:38;;;;;;;4.10;1.40;;;;;;;5.04;94.49;96812.19;5034522;28;20266;-79
2022/02/09 03:14:10;;;;;;;2.97;1.40;;;;;;;5.04;93.84;96777.91;5054724;28;20172;-79
2022/02/09 03:16:41;;;;;;;2.73;1.50;;;;;;;5.04;93.53;96767.59;5052407;28;20178;-79
2022/02/09 03:19:29;;;;;;;3.53;2.10;;;;;;;5.14;92.40;96780.81;5042640;28;20201;-79
2022/02/09 03:24:37;;;;;;;13.03;3.03;;;;;;;4.78;94.65;96781.88;5033868;28;20182;-79
2022/02/09 03:44:25;;;;;;;2.10;1.30;;;;;;;5.02;93.66;96782.28;5033234;28;20207;-78
2022/02/09 03:49:13;;;;;;;3.47;1.43;;;;;;;5.03;93.71;96776.22;5033633;28;20189;-79
2022/02/09 03:51:48;;;;;;;3.03;1.30;;;;;;;5.01;93.72;96772.91;5018496;28;20214;-79
2022/02/09 03:54:28;;;;;;;2.93;1.40;;;;;;;5.02;93.83;96774.56;5034727;28;20184;-79
2022/02/09 03:57:00;;;;;;;3.57;1.67;;;;;;;4.98;94.15;96765.34;5019160;28;20178;-79
2022/02/09 03:59:28;;;;;;;2.43;1.23;;;;;;;5.08;93.53;96769.09;5033263;28;20174;-79
2022/02/09 04:01:54;;;;;;;4.30;1.70;;;;;;;5.10;93.30;96759.53;5032983;28;20178;-79
2022/02/09 04:04:19;;;;;;;4.20;1.83;;;;;;;5.04;93.84;96767.59;5016354;28;20661;-79
2022/02/09 04:06:48;;;;;;;3.77;1.77;;;;;;;5.07;93.47;96764.84;5035190;28;20178;-78
2022/02/09 04:09:16;;;;;;;5.77;1.57;;;;;;;5.13;93.34;96761.13;5017654;28;20189;-79
2022/02/09 04:16:58;;;;;;;3.57;1.30;;;;;;;5.09;93.57;96765.59;5033882;28;20190;-79
2022/02/09 04:19:35;;;;;;;3.47;1.73;;;;;;;5.08;93.82;96762.19;5033850;28;20593;-79
2022/02/09 04:38:49;;;;;;;3.40;1.67;;;;;;;5.15;93.18;96764.44;5034705;28;20185;-79
2022/02/09 04:41:36;;;;;;;3.30;1.50;;;;;;;5.11;93.68;96768.91;5033085;28;20194;-79
2022/02/09 04:45:14;;;;;;;4.03;1.80;;;;;;;4.96;94.42;96765.44;5035901;28;20183;-80
2022/02/09 04:55:37;;;;;;;2.20;1.80;;;;;;;5.11;93.78;96758.59;5027025;28;20267;-78
2022/02/09 04:58:22;;;;;;;2.80;2.00;;;;;;;4.99;94.52;96756.72;5013546;28;20178;-78
2022/02/09 05:01:03;;;;;;;2.73;1.90;;;;;;;4.97;94.86;96764.53;5041798;28;20235;-79
2022/02/09 05:04:09;;;;;;;4.73;2.40;;;;;;;4.98;95.03;96762.78;5040425;28;20189;-79
2022/02/09 05:22:43;;;;;;;3.57;2.10;;;;;;;5.05;94.23;96746.09;5036929;28;20183;-77
2022/02/09 05:28:03;;;;;;;2.80;2.30;;;;;;;5.11;94.00;96749.13;5039648;28;20220;-80
2022/02/09 05:30:28;;;;;;;10.70;5.93;;;;;;;5.08;94.41;96751.06;5019365;28;20216;-79
2022/02/09 05:32:53;;;;;;;7.17;4.27;;;;;;;5.07;94.31;96751.97;5036024;28;20206;-79
2022/02/09 05:35:21;;;;;;;12.60;7.20;;;;;;;4.78;95.64;96754.41;5038391;28;20544;-79
2022/02/09 05:37:51;;;;;;;15.90;9.50;;;;;;;4.51;98.08;96755.88;5054505;28;20196;-79
2022/02/09 05:40:16;;;;;;;12.80;7.97;;;;;;;4.60;97.49;96750.25;5021286;28;20199;-79
2022/02/09 05:42:42;;;;;;;7.67;4.63;;;;;;;5.00;95.45;96755.78;5036685;28;20205;-78
2022/02/09 05:45:10;;;;;;;6.43;4.30;;;;;;;5.03;94.67;96743.56;5036148;28;20190;-78
2022/02/09 05:48:25;;;;;;;4.20;2.73;;;;;;;5.04;94.39;96752.97;5035269;28;20180;-79
2022/02/09 05:50:47;;;;;;;4.53;2.80;;;;;;;5.06;94.53;96756.31;5035179;28;20672;-79
2022/02/09 05:53:17;;;;;;;3.03;2.47;;;;;;;5.10;94.32;96757.78;5038523;28;20199;-78
2022/02/09 05:58:46;;;;;;;4.60;3.40;;;;;;;5.05;94.23;96754.63;5056143;28;20178;-78
2022/02/09 06:01:04;;;;;;;2.70;2.37;;;;;;;5.04;94.97;96762.47;5050275;28;20241;-78
2022/02/09 06:03:29;;;;;;;4.57;2.03;;;;;;;5.04;94.83;96767.59;5018085;28;20277;-78
2022/02/09 06:05:55;;;;;;;4.00;2.47;;;;;;;5.08;94.48;96769.09;5034233;28;20209;-78
2022/02/09 06:08:22;;;;;;;5.70;3.10;;;;;;;5.02;94.58;96769.41;5019017;28;20213;-78
2022/02/09 06:10:53;;;;;;;8.10;3.80;;;;;;;5.05;94.53;96764.13;5036789;28;20263;-78
2022/02/09 06:21:13;;;;;;;9.93;5.33;;;;;;;5.07;94.14;96767.44;5056325;28;20629;-78
2022/02/09 06:23:39;;;;;;;13.53;8.53;;;;;;;5.03;94.47;96764.16;5063728;28;20177;-80
2022/02/09 06:26:05;;;;;;;9.20;5.77;;;;;;;5.06;94.72;96776.91;5048631;28;20217;-80
2022/02/09 06:28:30;;;;;;;7.20;5.70;;;;;;;5.08;94.45;96775.06;5045254;28;20190;-77
2022/02/09 06:30:57;;;;;;;10.93;6.73;;;;;;;5.10;94.23;96767.25;5032666;28;20203;-77
2022/02/09 06:33:22;;;;;;;9.03;5.40;;;;;;;5.10;94.38;96769.81;5040818;28;20280;-77
2022/02/09 06:35:48;;;;;;;6.33;3.50;;;;;;;5.12;94.26;96768.00;5036864;28;20185;-79
2022/02/09 06:38:16;;;;;;;4.03;2.40;;;;;;;5.07;94.59;96777.72;5036409;28;20181;-78
2022/02/09 06:40:43;;;;;;;5.07;2.60;;;;;;;5.07;95.03;96767.44;5053010;28;20198;-79
2022/02/09 06:43:09;;;;;;;4.20;2.60;;;;;;;5.04;94.48;96763.28;5035152;28;20651;-77
2022/02/09 06:45:37;;;;;;;3.87;2.07;;;;;;;5.02;94.77;96769.41;5035478;28;20270;-77
2022/02/09 06:48:12;;;;;;;7.20;2.33;;;;;;;5.00;94.55;96761.78;5056301;28;20181;-78
2022/02/09 06:50:42;;;;;;;6.33;2.50;;;;;;;4.81;95.49;96761.94;5054167;28;20216;-78
2022/02/09 06:53:26;;;;;;;2.13;1.70;;;;;;;4.80;95.83;96756.88;5038802;28;20222;-77
2022/02/09 06:55:56;;;;;;;5.30;1.77;;;;;;;4.57;97.12;96758.09;5055647;28;20704;-78
2022/02/09 07:01:05;;;;;;;3.60;2.30;;;;;;;4.59;97.16;96758.00;5053581;28;20217;-78
2022/02/09 07:03:30;;;;;;;5.07;1.90;;;;;;;5.02;94.78;96759.09;5052461;28;20171;-78
2022/02/09 07:05:55;;;;;;;5.00;2.27;;;;;;;4.62;97.09;96763.03;5053734;28;20288;-78
2022/02/09 07:08:21;;;;;;;4.10;2.27;;;;;;;4.52;98.04;96755.78;5053185;28;20185;-79
2022/02/09 07:10:47;;;;;;;5.80;2.07;;;;;;;4.52;98.07;96757.53;5052120;28;20213;-78
2022/02/09 07:13:12;;;;;;;4.40;2.60;;;;;;;4.56;97.54;96753.88;5035247;28;20258;-78
2022/02/09 07:15:41;;;;;;;7.23;2.03;;;;;;;4.62;97.63;96761.28;5052986;28;20193;-78
2022/02/09 07:18:12;;;;;;;4.43;2.07;;;;;;;4.50;97.79;96762.72;5048861;28;20190;-78
2022/02/09 07:20:47;;;;;;;4.50;1.90;;;;;;;4.47;98.32;96756.94;5045518;28;20291;-78
2022/02/09 07:23:23;;;;;;;3.97;2.37;;;;;;;4.42;98.48;96753.78;5037014;28;20177;-79
2022/02/09 07:26:03;;;;;;;5.17;2.00;;;;;;;4.43;98.30;96746.00;5036858;28;20626;-77
2022/02/09 07:28:28;;;;;;;3.73;1.70;;;;;;;4.45;98.04;96753.63;5052663;28;20457;-78
2022/02/09 07:30:54;;;;;;;4.20;1.90;;;;;;;4.39;97.83;96747.03;5051563;28;20213;-79
2022/02/09 07:33:19;;;;;;;4.10;2.70;;;;;;;4.34;97.61;96740.50;5024376;28;20199;-79
2022/02/09 07:35:44;;;;;;;5.20;2.40;;;;;;;4.29;98.01;96745.03;5049938;28;20186;-79
2022/02/09 07:38:10;;;;;;;5.50;2.47;;;;;;;4.28;97.77;96741.63;5035473;28;20192;-80
2022/02/09 07:40:35;;;;;;;6.30;2.67;;;;;;;4.25;98.17;96741.81;5036118;28;20198;-78
2022/02/09 07:43:09;;;;;;;7.23;3.07;;;;;;;4.27;98.05;96747.69;5035683;28;20181;-80
2022/02/09 07:50:47;;;;;;;2.80;1.93;;;;;;;4.30;97.74;96744.13;5035360;28;20643;-80
2022/02/09 07:53:23;;;;;;;5.37;2.30;;;;;;;4.30;98.23;96746.69;5022316;28;20293;-82
2022/02/09 07:55:48;;;;;;;4.37;2.70;;;;;;;4.34;97.92;96740.50;5038732;28;20196;-79
2022/02/09 07:58:14;;;;;;;5.60;2.40;;;;;;;4.28;98.34;96736.50;5038011;28;20189;-80
2022/02/09 08:00:39;;;;;;;6.10;2.13;;;;;;;4.55;97.21;96741.94;5054627;28;20213;-81
2022/02/09 08:03:05;;;;;;;8.87;2.53;;;;;;;4.69;96.53;96747.19;5053224;28;20168;-78
2022/02/09 08:05:31;;;;;;;7.40;2.13;;;;;;;4.78;95.72;96733.00;5036660;28;20670;-79
2022/02/09 08:07:57;;;;;;;4.07;2.13;;;;;;;4.77;95.17;96737.31;5035212;28;20196;-79
2022/02/09 08:24:00;;;;;;;3.43;2.20;;;;;;;4.84;94.95;96720.59;5041279;28;20551;-85
2022/02/09 08:29:02;;;;;;;5.10;2.43;;;;;;;4.93;94.40;96713.28;5056405;28;20562;-80
2022/02/09 08:31:48;;;;;;;2.70;1.80;;;;;;;4.96;94.64;96710.56;5055433;28;20263;-80
2022/02/09 08:34:14;;;;;;;4.20;2.07;;;;;;;4.97;93.88;96714.78;5056766;28;20182;-81
2022/02/09 08:36:40;;;;;;;5.50;1.83;;;;;;;4.98;93.60;96714.69;5055738;28;20746;-78
2022/02/09 08:39:06;;;;;;;3.50;1.93;;;;;;;4.98;94.15;96709.53;5055541;28;20273;-78
2022/02/09 08:41:32;;;;;;;4.87;2.00;;;;;;;5.48;91.73;96707.59;5038235;28;20721;-78
2022/02/09 08:43:57;;;;;;;7.70;2.40;;;;;;;5.18;92.89;96705.84;5035275;28;20178;-79
2022/02/09 08:46:23;;;;;;;4.93;2.30;;;;;;;5.23;93.13;96701.28;5018827;28;20197;-79
2022/02/09 08:48:48;;;;;;;8.63;2.60;;;;;;;5.73;90.92;96707.00;5042403;28;20182;-78
2022/02/09 08:51:14;;;;;;;6.93;2.23;;;;;;;5.84;89.42;96702.91;5056385;28;20292;-78
2022/02/09 08:53:39;;;;;;;5.77;2.30;;;;;;;5.87;88.86;96700.13;5057816;28;20202;-78
2022/02/09 08:56:07;;;;;;;4.03;2.10;;;;;;;6.10;88.34;96703.13;5056083;28;20182;-80
2022/02/09 08:58:33;;;;;;;6.27;1.73;;;;;;;6.23;87.35;96693.72;5056586;28;20173;-79
2022/02/09 09:01:08;;;;;;;5.00;1.70;;;;;;;6.33;86.31;96699.97;5043982;28;20302;-79
2022/02/09 09:03:43;;;;;;;3.93;1.80;;;;;;;6.47;85.61;96704.31;5037751;28;20170;-79
2022/02/09 09:06:10;;;;;;;5.70;2.40;;;;;;;6.65;85.01;96684.28;5040296;28;20173;-79
2022/02/09 09:08:46;;;;;;;4.33;2.33;;;;;;;6.72;84.87;96682.97;5055992;28;20685;-79
2022/02/09 09:25:10;;;;;;;6.63;2.93;;;;;;;6.51;86.42;96690.28;5055688;28;20177;-79
2022/02/09 10:01:10;;;;;;;6.63;2.60;;;;;;;6.99;84.43;96686.38;5056541;28;20347;-80
2022/02/09 10:03:23;;;;;;;2.83;2.00;;;;;;;7.10;85.00;96688.28;5054740;28;20194;-79
2022/02/09 10:34:24;;;;;;;3.40;1.70;;;;;;;7.74;81.72;96675.47;5054133;28;20304;-78
2022/02/09 10:36:51;;;;;;;2.23;1.57;;;;;;;7.90;80.57;96665.75;5054444;28;20231;-79
2022/02/09 10:39:23;;;;;;;5.70;1.63;;;;;;;7.91;79.52;96663.06;5056151;28;20184;-79
2022/02/09 10:41:51;;;;;;;3.57;1.63;;;;;;;7.97;78.47;96663.59;5054651;28;20205;-79
2022/02/09 10:44:22;;;;;;;4.77;1.30;;;;;;;7.97;78.58;96651.50;5056426;28;20182;-79
2022/02/09 10:46:53;;;;;;;3.93;1.30;;;;;;;8.08;77.83;96648.97;5054880;28;20184;-80
2022/02/09 10:49:22;;;;;;;3.97;1.37;;;;;;;8.04;78.55;96642.38;5038792;28;20191;-79
2022/02/09 10:52:03;;;;;;;3.23;1.73;;;;;;;8.15;79.24;96645.06;5033981;28;20245;-79
2022/02/09 10:54:30;;;;;;;4.90;1.73;;;;;;;8.17;78.91;96635.41;5041050;28;20181;-79
2022/02/09 10:56:58;;;;;;;2.83;1.40;;;;;;;8.23;78.58;96631.59;5038412;28;20599;-78
2022/02/09 10:59:25;;;;;;;2.30;1.30;;;;;;;8.23;78.01;96637.59;5038353;28;20551;-78
2022/02/09 11:01:52;;;;;;;5.03;1.10;;;;;;;8.22;78.75;96628.16;5054362;28;20284;-78
2022/02/09 11:04:17;;;;;;;3.67;1.30;;;;;;;8.31;78.04;96625.88;5037220;28;20193;-78
2022/02/09 11:06:46;;;;;;;2.63;1.30;;;;;;;8.40;77.32;96622.69;5056022;28;20742;-79
2022/02/09 11:09:13;;;;;;;1.27;1.00;;;;;;;8.40;76.07;96617.50;5038170;28;20181;-79
2022/02/09 11:11:41;;;;;;;30.60;2.63;;;;;;;8.48;76.44;96612.56;5038365;28;20231;-79
2022/02/09 11:14:10;;;;;;;22.23;3.53;;;;;;;8.59;76.53;96610.06;5027951;28;20340;-79
2022/02/09 11:16:36;;;;;;;3.47;1.10;;;;;;;8.55;76.57;96606.03;5034938;28;20201;-79
2022/02/09 11:19:02;;;;;;;3.90;1.10;;;;;;;8.69;76.22;96612.84;5032859;28;20708;-78
2022/02/09 11:21:32;;;;;;;1.90;1.10;;;;;;;8.73;75.36;96612.47;5032330;28;20572;-79
2022/02/09 11:24:00;;;;;;;2.80;1.47;;;;;;;8.85;74.78;96604.78;5041083;28;20185;-79
2022/02/09 11:27:09;;;;;;;1.47;1.37;;;;;;;8.90;74.07;96589.72;5039531;28;20175;-79
2022/02/09 11:34:49;;;;;;;1.87;0.90;;;;;;;8.96;74.54;96594.47;5053676;28;20196;-79
2022/02/09 11:37:23;;;;;;;2.03;1.30;;;;;;;9.01;74.69;96592.34;5055116;28;20257;-80
2022/02/09 11:39:51;;;;;;;2.47;1.37;;;;;;;9.01;73.27;96592.34;5037918;28;20209;-79
2022/02/09 11:42:54;;;;;;;2.17;1.30;;;;;;;9.12;73.06;96594.19;5034846;28;20175;-78
2022/02/09 11:51:39;;;;;;;1.77;1.00;;;;;;;9.38;73.48;96585.28;5053771;28;20622;-77
2022/02/09 11:57:08;;;;;;;8.20;3.70;;;;;;;9.44;70.96;96576.22;5037370;28;20185;-80
2022/02/09 12:16:41;;;;;;;2.10;0.90;;;;;;;9.87;69.17;96556.44;5052403;28;20181;-79
2022/02/09 12:19:10;;;;;;;2.30;1.30;;;;;;;10.06;67.92;96555.00;5036526;28;20185;-78
2022/02/09 12:21:45;;;;;;;1.17;0.90;;;;;;;9.90;68.76;96551.03;5035617;28;20197;-79
2022/02/09 12:24:32;;;;;;;2.90;1.10;;;;;;;10.00;68.84;96543.34;5047092;28;20202;-79
2022/02/09 12:27:08;;;;;;;2.07;1.00;;;;;;;10.06;69.79;96539.44;5036376;28;20189;-77
2022/02/09 12:29:34;;;;;;;2.63;0.80;;;;;;;10.08;69.91;96542.75;5052593;28;20181;-79
2022/02/09 12:32:02;;;;;;;1.83;0.90;;;;;;;10.03;68.91;96543.09;5052721;28;20234;-78
2022/02/09 12:34:29;;;;;;;1.00;0.90;;;;;;;10.10;67.77;96540.84;5054917;28;20178;-80
2022/02/09 12:36:55;;;;;;;1.73;1.00;;;;;;;10.14;68.27;96532.69;5045810;28;20217;-78
2022/02/09 12:39:22;;;;;;;2.10;0.70;;;;;;;10.27;66.65;96540.38;5034729;28;20183;-78
2022/02/09 12:41:48;;;;;;;2.20;1.50;;;;;;;10.28;65.99;96534.25;5017258;28;20207;-78
2022/02/09 12:44:21;;;;;;;2.00;1.23;;;;;;;10.27;66.47;96527.41;5054834;28;20174;-78
2022/02/09 12:46:46;;;;;;;2.00;1.20;;;;;;;10.34;67.15;96525.16;5049860;28;20183;-79
2022/02/09 12:49:13;;;;;;;1.30;0.90;;;;;;;10.24;66.75;96522.44;5033949;28;20174;-79
2022/02/09 12:51:42;;;;;;;3.00;1.00;;;;;;;10.35;67.00;96517.25;5026600;28;20224;-79
2022/02/09 12:54:09;;;;;;;1.70;0.90;;;;;;;10.11;67.52;96519.16;5027249;28;20221;-79
2022/02/09 12:56:39;;;;;;;1.63;1.10;;;;;;;10.15;67.58;96512.75;5055375;28;20617;-79
2022/02/09 12:59:06;;;;;;;2.40;1.03;;;;;;;10.20;67.77;96514.06;5038779;28;20178;-79
2022/02/09 13:01:52;;;;;;;3.20;1.90;;;;;;;10.20;67.24;96510.63;5055792;28;20652;-78
2022/02/09 13:04:38;;;;;;;2.37;1.63;;;;;;;10.39;66.63;96505.66;5038322;28;20547;-79
2022/02/09 13:07:14;;;;;;;3.43;1.83;;;;;;;10.43;66.34;96508.84;5040026;28;20182;-79
2022/02/09 13:09:45;;;;;;;2.73;0.97;;;;;;;10.31;67.10;96508.03;5038765;28;20191;-78
2022/02/09 13:12:10;;;;;;;2.07;1.00;;;;;;;10.20;66.92;96508.84;5038655;28;20201;-80
2022/02/09 13:14:41;;;;;;;2.40;0.90;;;;;;;10.57;65.82;96503.34;5056357;28;20677;-79
2022/02/09 13:17:39;;;;;;;2.37;1.20;;;;;;;10.62;65.81;96500.38;5043595;28;20178;-78
2022/02/09 13:20:27;;;;;;;2.50;2.30;;;;;;;10.60;66.20;96490.13;5055655;28;20206;-80
2022/02/09 14:18:25;;;;;;;1.97;1.20;;;;;;;10.30;65.00;96453.63;5055611;28;20200;-80
2022/02/09 14:24:01;;;;;;;2.27;1.00;;;;;;;9.99;65.63;96450.88;5054137;28;20189;-80
2022/02/09 14:56:24;;;;;;;4.47;1.37;;;;;;;10.44;64.05;96458.56;5012265;28;20299;-79
2022/02/09 14:58:57;;;;;;;2.90;1.30;;;;;;;10.45;64.50;96453.22;5011870;28;20194;-79
2022/02/09 15:01:34;;;;;;;4.57;1.60;;;;;;;10.04;64.56;96442.72;4991736;28;20212;-79
2022/02/09 15:04:19;;;;;;;2.90;1.90;;;;;;;9.80;65.22;96450.66;4970981;28;20199;-79
2022/02/09 15:09:14;;;;;;;3.07;1.60;;;;;;;9.68;65.54;96447.28;5012056;28;20243;-80
2022/02/09 15:14:17;;;;;;;3.13;1.50;;;;;;;9.59;66.26;96442.81;4982330;28;20222;-79
2022/02/09 15:24:28;;;;;;;3.97;1.60;;;;;;;9.41;65.32;96445.06;5011351;28;20199;-79
2022/02/09 15:26:55;;;;;;;3.20;1.70;;;;;;;9.33;65.51;96443.06;4995514;28;20233;-78
2022/02/09 15:29:20;;;;;;;3.93;1.70;;;;;;;9.29;65.67;96444.25;5015877;28;20191;-79
2022/02/09 15:31:55;;;;;;;4.00;2.00;;;;;;;9.29;66.06;96441.66;5031542;28;20220;-78
2022/02/09 15:34:28;;;;;;;5.30;1.90;;;;;;;9.27;65.85;96437.50;5017378;28;20220;-77
2022/02/09 15:39:26;;;;;;;4.03;2.57;;;;;;;9.24;65.28;96430.81;5053899;28;20186;-78
2022/02/09 15:58:21;;;;;;;4.23;2.10;;;;;;;8.66;67.10;96427.44;5054929;28;20193;-77
2022/02/09 16:06:42;;;;;;;3.20;1.77;;;;;;;8.52;67.43;96427.63;5052590;28;20308;-77
2022/02/09 16:09:14;;;;;;;3.93;1.73;;;;;;;8.49;68.18;96420.09;5053426;28;20174;-77
2022/02/09 16:17:57;;;;;;;107.50;61.47;;;;;;;7.98;70.31;96416.94;5053376;28;20562;-78
2022/02/09 16:23:01;;;;;;;5.70;4.10;;;;;;;7.82;70.77;96415.44;5054189;28;20595;-77
2022/02/09 16:25:49;;;;;;;20.57;13.10;;;;;;;7.65;71.24;96419.22;5039565;28;20180;-78
2022/02/09 16:44:17;;;;;;;6.40;5.13;;;;;;;6.99;75.49;96424.72;5056124;28;20177;-78
2022/02/09 16:44:39;;;;;;;10.00;4.70;;;;;;;6.73;76.96;96423.91;5054041;28;20238;-78
2022/02/09 16:47:09;;;;;;;7.30;4.47;;;;;;;6.56;77.48;96421.63;5056522;28;20183;-78
2022/02/09 16:49:49;;;;;;;10.60;4.77;;;;;;;6.40;78.48;96414.88;5056941;28;20260;-79
2022/02/09 16:52:21;;;;;;;10.20;4.63;;;;;;;6.25;80.28;96424.44;5036892;28;20190;-78
2022/02/09 16:54:56;;;;;;;8.37;4.87;;;;;;;6.00;80.47;96418.38;5036380;28;20167;-79
2022/02/09 17:19:34;;;;;;;12.97;8.23;;;;;;;4.78;88.40;96414.72;5020841;28;20197;-79
2022/02/09 17:22:00;;;;;;;13.80;8.90;;;;;;;4.68;88.57;96410.19;5018252;28;20175;-79
2022/02/09 17:24:25;;;;;;;9.80;7.83;;;;;;;4.71;88.78;96415.16;5018012;28;20628;-80
2022/02/09 17:26:53;;;;;;;12.30;7.67;;;;;;;4.65;88.78;96413.75;5018391;28;20836;-78
2022/02/09 17:29:22;;;;;;;15.97;9.73;;;;;;;4.70;89.07;96416.91;5002245;28;20205;-78
2022/02/09 17:34:58;;;;;;;11.77;7.87;;;;;;;4.55;89.07;96420.38;5034596;28;20219;-78
2022/02/09 17:53:31;;;;;;;12.40;8.20;;;;;;;4.45;89.58;96414.13;5033417;28;20236;-78
2022/02/09 17:56:10;;;;;;;11.20;8.10;;;;;;;4.41;90.09;96417.75;5016152;28;20698;-79
2022/02/09 17:58:46;;;;;;;15.30;9.57;;;;;;;4.41;90.11;96413.44;5034112;28;20257;-77
2022/02/09 18:01:12;;;;;;;17.57;10.93;;;;;;;4.41;90.13;96410.88;5017946;28;20564;-77
2022/02/09 18:03:37;;;;;;;17.13;9.87;;;;;;;4.13;91.16;96408.25;5049517;28;20182;-78
2022/02/09 18:11:31;;;;;;;17.77;8.40;;;;;;;4.12;92.28;96409.16;5032972;28;20195;-77
2022/02/09 18:15:01;;;;;;;26.07;14.70;;;;;;;3.92;92.77;96408.53;5019282;28;20551;-78
2022/02/09 18:30:19;;;;;;;13.93;7.60;;;;;;;3.83;94.92;96403.91;5033375;28;20195;-78
2022/02/09 18:41:40;;;;;;;6.87;4.63;;;;;;;4.07;94.90;96400.91;5035130;28;20191;-79
2022/02/09 18:43:37;;;;;;;6.17;4.20;;;;;;;4.12;94.27;96397.13;5035808;28;20231;-79
2022/02/09 18:46:24;;;;;;;5.53;4.50;;;;;;;4.15;93.63;96389.25;5035661;28;20182;-79
2022/02/09 18:57:21;;;;;;;5.50;3.87;;;;;;;3.91;93.69;96385.50;5034819;28;20336;-79
2022/02/09 19:00:04;;;;;;;5.10;3.93;;;;;;;3.84;93.68;96381.63;5020192;28;20183;-79
2022/02/09 19:05:14;;;;;;;6.57;4.40;;;;;;;3.84;93.44;96381.63;5033279;28;20197;-79
2022/02/09 19:26:13;;;;;;;7.67;4.70;;;;;;;3.59;91.95;96364.19;5037304;28;20198;-78
2022/02/09 19:26:45;;;;;;;9.13;5.27;;;;;;;3.50;91.96;96352.66;5036633;28;20544;-79
2022/02/09 19:32:07;;;;;;;4.03;2.60;;;;;;;3.49;91.43;96348.44;5033429;28;20616;-79
2022/02/09 19:45:54;;;;;;;4.87;3.40;;;;;;;3.38;90.10;96353.34;5035407;28;20193;-79
2022/02/09 19:48:23;;;;;;;5.40;3.20;;;;;;;3.41;89.79;96353.19;5021212;28;20612;-80
2022/02/09 19:53:41;;;;;;;4.73;2.80;;;;;;;3.47;88.80;96352.84;5032886;28;20207;-79
2022/02/09 19:56:11;;;;;;;5.17;2.77;;;;;;;3.47;88.22;96347.72;5021458;28;20207;-79
2022/02/09 19:58:46;;;;;;;2.83;2.20;;;;;;;3.58;87.12;96349.69;5034884;28;20178;-80
2022/02/09 20:01:16;;;;;;;3.23;2.20;;;;;;;3.54;86.38;96354.16;5017854;28;20196;-79
2022/02/09 20:03:42;;;;;;;3.50;2.30;;;;;;;3.51;86.62;96349.19;5017616;28;20172;-79
2022/02/09 20:06:07;;;;;;;6.07;3.70;;;;;;;3.50;86.33;96351.84;5033165;28;20650;-79
2022/02/09 20:08:37;;;;;;;6.00;3.50;;;;;;;3.45;86.16;96359.00;5028642;28;20231;-78
2022/02/09 20:11:08;;;;;;;7.37;3.30;;;;;;;3.40;86.52;96347.22;5033118;28;20198;-79
2022/02/09 20:13:34;;;;;;;4.57;3.07;;;;;;;3.46;86.52;96348.63;5051081;28;20191;-79
2022/02/09 20:15:59;;;;;;;4.40;3.20;;;;;;;3.39;86.08;96345.56;5035281;28;20187;-78
2022/02/09 20:18:26;;;;;;;4.73;2.83;;;;;;;3.22;86.77;96340.53;5035471;28;20193;-79
2022/02/09 20:20:54;;;;;;;3.73;2.90;;;;;;;3.20;86.64;96333.81;5033665;28;20191;-79
2022/02/09 20:23:19;;;;;;;4.40;2.97;;;;;;;3.12;86.74;96340.19;5044245;28;20209;-79
2022/02/09 20:25:44;;;;;;;3.40;2.90;;;;;;;3.04;87.04;96333.81;5052536;28;20181;-79
2022/02/09 20:28:10;;;;;;;4.87;2.87;;;;;;;2.99;86.72;96341.75;5056095;28;20178;-78
2022/02/09 20:30:41;;;;;;;9.73;5.63;;;;;;;2.94;86.62;96343.75;5033711;28;20209;-78
2022/02/09 20:33:11;;;;;;;7.93;4.50;;;;;;;2.91;86.98;96338.75;5037675;28;21076;-79
2022/02/09 20:35:36;;;;;;;6.10;3.77;;;;;;;2.90;86.87;96337.09;5030316;28;20634;-79
2022/02/09 20:38:02;;;;;;;4.13;3.50;;;;;;;2.99;86.14;96339.19;5031645;28;20178;-78
2022/02/09 20:40:36;;;;;;;3.47;1.90;;;;;;;3.04;85.68;96337.22;5048599;28;20192;-78
2022/02/09 20:43:03;;;;;;;2.67;1.80;;;;;;;3.01;85.29;96334.00;5032748;28;20165;-79
2022/02/09 20:48:13;;;;;;;2.20;1.53;;;;;;;2.98;85.38;96337.53;5031619;28;20219;-79
2022/02/09 20:50:38;;;;;;;3.30;1.43;;;;;;;2.93;86.04;96333.56;5030102;28;20222;-78
2022/02/09 20:53:04;;;;;;;2.70;1.70;;;;;;;2.86;85.88;96333.06;5031043;28;20212;-78
2022/02/09 20:55:30;;;;;;;2.73;1.93;;;;;;;2.87;86.03;96344.97;5048247;28;20550;-78
2022/02/09 20:57:56;;;;;;;4.43;1.73;;;;;;;2.90;85.71;96337.09;5031844;28;20174;-78
2022/02/09 21:00:30;;;;;;;2.27;2.07;;;;;;;2.87;85.72;96337.28;5031712;28;20687;-78
2022/02/09 21:07:56;;;;;;;3.87;1.87;;;;;;;2.91;84.86;96337.94;5035562;28;20785;-78
2022/02/09 21:10:43;;;;;;;2.50;2.17;;;;;;;2.96;84.58;96338.53;5022927;28;20284;-79
2022/02/09 21:13:18;;;;;;;2.17;1.97;;;;;;;2.93;84.53;96336.97;5039503;28;20206;-78
2022/02/09 21:32:04;;;;;;;4.90;2.80;;;;;;;2.77;83.23;96325.88;5054113;28;20212;-79
2022/02/09 21:53:03;;;;;;;5.83;3.40;;;;;;;2.55;82.12;96321.84;5055679;28;20281;-78
2022/02/09 21:55:57;;;;;;;12.07;5.47;;;;;;;2.49;82.68;96313.66;5041357;28;20206;-78
2022/02/09 21:58:36;;;;;;;15.80;7.20;;;;;;;2.41;82.99;96315.78;5055789;28;20709;-79
2022/02/09 22:01:29;;;;;;;22.27;8.50;;;;;;;2.34;83.01;96312.72;5056305;28;20285;-78
2022/02/09 22:27:57;;;;;;;5.43;2.60;;;;;;;2.21;82.65;96281.78;5055832;28;20209;-78
2022/02/09 22:31:14;;;;;;;5.00;2.43;;;;;;;2.22;82.62;96282.59;5038900;28;20204;-79
2022/02/09 22:54:57;;;;;;;5.20;2.40;;;;;;;2.20;81.18;96269.00;5044285;28;20209;-78
2022/02/09 22:57:40;;;;;;;4.63;2.53;;;;;;;2.38;80.05;96272.34;5054310;28;20257;-78
2022/02/09 23:00:15;;;;;;;3.60;2.37;;;;;;;2.40;79.41;96273.94;5054211;28;20201;-78
2022/02/09 23:02:45;;;;;;;3.13;2.00;;;;;;;2.45;79.92;96266.84;5054651;28;20174;-78
2022/02/09 23:08:34;;;;;;;4.90;2.20;;;;;;;2.61;78.51;96258.34;5056229;28;20233;-76
2022/02/09 23:13:21;;;;;;;3.43;1.93;;;;;;;2.60;78.16;96251.56;5054458;28;20655;-77
2022/02/09 23:27:11;;;;;;;3.43;1.90;;;;;;;2.87;76.61;96250.06;5052290;28;20181;-77
